createdAt,value
2022-09-13T00:03:45.889Z,12.81
2022-09-13T00:07:48.115Z,12.77
2022-09-13T00:11:49.553Z,12.70
2022-09-13T00:15:50.930Z,12.91
2022-09-13T00:19:52.578Z,12.98
2022-09-13T00:23:55.066Z,12.67
2022-09-13T00:27:56.539Z,12.66
2022-09-13T00:31:58.182Z,12.62
2022-09-13T00:36:07.026Z,12.69
2022-09-13T00:40:08.795Z,12.67
2022-09-13T00:44:47.413Z,12.44
2022-09-13T00:48:52.103Z,12.33
2022-09-13T00:53:16.323Z,12.37
2022-09-13T00:57:22.080Z,12.41
2022-09-13T01:01:29.251Z,12.47
2022-09-13T01:05:34.816Z,12.44
2022-09-13T01:09:39.900Z,12.48
2022-09-13T01:13:41.699Z,12.53
2022-09-13T01:17:43.790Z,12.51
2022-09-13T01:22:03.932Z,12.30
2022-09-13T01:26:08.198Z,12.43
2022-09-13T01:30:18.723Z,12.41
2022-09-13T01:34:28.802Z,12.46
2022-09-13T01:38:57.373Z,12.43
2022-09-13T01:43:19.418Z,12.22
2022-09-13T01:47:49.061Z,12.01
2022-09-13T01:51:57.570Z,12.31
2022-09-13T01:56:10.323Z,12.33
2022-09-13T02:00:14.647Z,11.84
2022-09-13T02:04:23.266Z,12.14
2022-09-13T02:08:46.491Z,12.07
2022-09-13T02:12:49.490Z,12.00
2022-09-13T02:17:01.290Z,12.18
2022-09-13T02:21:10.589Z,12.22
2022-09-13T02:25:17.588Z,12.19
2022-09-13T02:29:23.138Z,12.05
2022-09-13T02:33:33.653Z,12.09
2022-09-13T02:37:38.705Z,11.96
2022-09-13T02:41:53.851Z,11.78
2022-09-13T02:46:37.830Z,11.82
2022-09-13T02:51:05.331Z,11.92
2022-09-13T02:55:31.558Z,11.73
2022-09-13T02:59:34.383Z,12.03
2022-09-13T03:03:35.820Z,12.02
2022-09-13T03:07:37.200Z,12.02
2022-09-13T03:11:55.726Z,12.04
2022-09-13T03:16:00.147Z,11.93
2022-09-13T03:20:13.647Z,11.88
2022-09-13T03:24:35.012Z,11.82
2022-09-13T03:28:48.383Z,11.78
2022-09-13T03:33:06.713Z,11.57
2022-09-13T03:37:14.014Z,11.81
2022-09-13T03:41:27.454Z,11.62
2022-09-13T03:45:34.067Z,11.64
2022-09-13T03:49:39.088Z,11.76
2022-09-13T03:53:50.242Z,11.77
2022-09-13T03:57:51.816Z,11.87
2022-09-13T04:01:53.191Z,11.90
2022-09-13T04:05:54.618Z,11.81
2022-09-13T04:09:56.054Z,11.86
2022-09-13T04:13:58.291Z,11.64
2022-09-13T04:18:01.030Z,11.92
2022-09-13T04:22:02.665Z,11.91
2022-09-13T04:26:05.933Z,12.02
2022-09-13T04:30:07.794Z,12.04
2022-09-13T04:34:09.171Z,11.99
2022-09-13T04:38:11.021Z,11.90
2022-09-13T04:42:13.090Z,11.86
2022-09-13T04:46:14.503Z,11.89
2022-09-13T04:50:15.999Z,11.73
2022-09-13T04:54:17.481Z,11.77
2022-09-13T04:58:18.861Z,11.97
2022-09-13T05:02:20.401Z,11.87
2022-09-13T05:06:22.810Z,12.03
2022-09-13T05:10:25.036Z,12.06
2022-09-13T05:14:26.706Z,11.92
2022-09-13T05:18:29.610Z,11.96
2022-09-13T05:22:31.354Z,11.97
2022-09-13T05:26:32.873Z,11.96
2022-09-13T05:30:34.281Z,12.26
2022-09-13T05:34:35.762Z,12.27
2022-09-13T05:38:37.363Z,12.19
2022-09-13T05:42:38.826Z,12.04
2022-09-13T05:46:40.746Z,12.10
2022-09-13T05:50:57.782Z,12.16
2022-09-13T05:54:59.838Z,12.28
2022-09-13T05:59:01.256Z,12.40
2022-09-13T06:03:02.727Z,12.09
2022-09-13T06:07:04.217Z,12.21
2022-09-13T06:11:08.386Z,12.25
2022-09-13T06:15:11.392Z,12.03
2022-09-13T06:19:12.757Z,12.13
2022-09-13T06:23:15.476Z,12.12
2022-09-13T06:27:16.900Z,12.15
2022-09-13T06:31:20.554Z,12.03
2022-09-13T06:35:22.204Z,12.14
2022-09-13T06:39:23.642Z,12.35
2022-09-13T06:43:25.099Z,12.37
2022-09-13T06:47:26.532Z,12.52
2022-09-13T06:51:29.956Z,12.44
2022-09-13T06:55:31.371Z,12.53
2022-09-13T06:59:34.576Z,12.49
2022-09-13T07:03:36.924Z,12.54
2022-09-13T07:07:38.354Z,12.75
2022-09-13T07:11:41.674Z,12.88
2022-09-13T07:15:43.075Z,12.92
2022-09-13T07:19:44.509Z,12.77
2022-09-13T07:23:45.965Z,12.84
2022-09-13T07:27:47.332Z,12.95
2022-09-13T07:31:51.469Z,13.02
2022-09-13T07:35:57.252Z,13.23
2022-09-13T07:39:58.691Z,13.30
2022-09-13T07:44:01.758Z,13.69
2022-09-13T07:48:03.217Z,13.86
2022-09-13T07:52:04.656Z,13.88
2022-09-13T07:56:12.361Z,13.83
2022-09-13T08:00:14.331Z,13.93
2022-09-13T08:04:18.966Z,13.87
2022-09-13T08:08:20.341Z,13.69
2022-09-13T08:12:21.741Z,14.13
2022-09-13T08:16:24.534Z,13.90
2022-09-13T08:20:25.931Z,14.15
2022-09-13T08:24:28.379Z,14.26
2022-09-13T08:28:31.599Z,14.27
2022-09-13T08:32:32.973Z,14.03
2022-09-13T08:36:34.309Z,13.90
2022-09-13T08:40:42.058Z,14.27
2022-09-13T08:44:50.766Z,14.29
2022-09-13T08:48:58.516Z,14.73
2022-09-13T08:53:17.933Z,15.01
2022-09-13T08:57:45.600Z,15.29
2022-09-13T09:01:50.184Z,15.20
2022-09-13T09:05:52.434Z,15.22
2022-09-13T09:09:58.647Z,15.20
2022-09-13T09:14:15.418Z,15.91
2022-09-13T09:18:30.324Z,16.45
2022-09-13T09:22:35.890Z,16.78
2022-09-13T09:26:37.678Z,16.77
2022-09-13T09:31:04.262Z,17.33
2022-09-13T09:35:28.619Z,16.79
2022-09-13T09:39:33.420Z,17.35
2022-09-13T09:43:52.529Z,17.18
2022-09-13T09:47:56.145Z,17.03
2022-09-13T09:51:59.211Z,16.99
2022-09-13T09:56:06.203Z,17.53
2022-09-13T10:00:12.051Z,17.76
2022-09-13T10:04:22.220Z,17.73
2022-09-13T10:08:28.432Z,17.80
2022-09-13T10:12:34.196Z,18.17
2022-09-13T10:16:35.726Z,18.24
2022-09-13T10:20:37.200Z,18.05
2022-09-13T10:24:39.490Z,18.47
2022-09-13T10:29:10.231Z,18.73
2022-09-13T10:33:40.777Z,18.68
2022-09-13T10:37:44.665Z,19.10
2022-09-13T10:41:59.739Z,18.79
2022-09-13T10:46:04.657Z,18.96
2022-09-13T10:50:20.390Z,18.98
2022-09-13T10:54:24.616Z,18.84
2022-09-13T10:58:26.286Z,19.14
2022-09-13T11:02:53.449Z,19.05
2022-09-13T11:07:03.536Z,18.51
2022-09-13T11:11:32.986Z,18.40
2022-09-13T11:15:57.104Z,18.26
2022-09-13T11:20:27.239Z,17.89
2022-09-13T11:25:23.880Z,16.86
2022-09-13T11:29:25.217Z,16.65
2022-09-13T11:34:02.831Z,16.52
2022-09-13T11:38:07.183Z,16.52
2022-09-13T11:42:14.740Z,16.64
2022-09-13T11:46:30.794Z,16.55
2022-09-13T11:50:44.777Z,16.57
2022-09-13T11:55:05.896Z,16.44
2022-09-13T11:59:35.320Z,16.54
2022-09-13T12:03:59.433Z,16.71
2022-09-13T12:08:22.625Z,16.81
2022-09-13T12:12:31.267Z,16.55
2022-09-13T12:16:40.758Z,16.64
2022-09-13T12:20:48.634Z,16.84
2022-09-13T12:24:57.321Z,16.67
2022-09-13T12:29:03.492Z,16.85
2022-09-13T12:33:06.631Z,16.81
2022-09-13T12:37:37.935Z,16.96
2022-09-13T12:42:04.295Z,17.03
2022-09-13T12:46:36.678Z,17.09
2022-09-13T12:51:01.791Z,17.34
2022-09-13T12:55:46.083Z,17.30
2022-09-13T13:00:09.875Z,17.42
2022-09-13T13:04:19.528Z,17.47
2022-09-13T13:08:20.852Z,17.70
2022-09-13T13:12:36.605Z,17.58
2022-09-13T13:16:40.921Z,17.82
2022-09-13T13:20:51.630Z,17.95
2022-09-13T13:24:55.448Z,17.66
2022-09-13T13:29:03.707Z,17.73
2022-09-13T13:33:13.381Z,17.93
2022-09-13T13:37:14.812Z,17.90
2022-09-13T13:41:39.335Z,17.63
2022-09-13T13:45:57.149Z,17.93
2022-09-13T13:50:15.271Z,18.22
2022-09-13T13:54:31.985Z,18.24
2022-09-13T13:59:15.013Z,18.22
2022-09-13T14:03:49.315Z,18.07
2022-09-13T14:08:18.220Z,18.11
2022-09-13T14:12:32.020Z,18.51
2022-09-13T14:17:02.822Z,19.53
2022-09-13T14:21:18.650Z,20.50
2022-09-13T14:25:20.295Z,19.99
2022-09-13T14:29:30.215Z,19.02
2022-09-13T14:33:40.556Z,20.03
2022-09-13T14:37:42.273Z,19.49
2022-09-13T14:41:43.759Z,19.73
2022-09-13T14:45:59.069Z,19.42
2022-09-13T14:50:12.052Z,19.09
2022-09-13T14:54:31.802Z,19.27
2022-09-13T14:58:44.038Z,18.66
2022-09-13T15:02:55.833Z,18.94
2022-09-13T15:07:11.637Z,19.19
2022-09-13T15:11:30.991Z,19.49
2022-09-13T15:15:39.693Z,19.37
2022-09-13T15:20:01.920Z,19.08
2022-09-13T15:24:03.558Z,18.90
2022-09-13T15:28:05.010Z,19.12
2022-09-13T15:32:07.331Z,19.39
2022-09-13T15:36:22.153Z,19.59
2022-09-13T15:40:23.666Z,19.53
2022-09-13T15:44:26.058Z,19.75
2022-09-13T15:48:36.284Z,19.88
2022-09-13T15:52:37.787Z,19.34
2022-09-13T15:56:42.911Z,19.13
2022-09-13T16:00:44.355Z,18.95
2022-09-13T16:04:46.250Z,19.13
2022-09-13T16:08:47.753Z,18.94
2022-09-13T16:12:49.297Z,18.99
2022-09-13T16:16:51.690Z,18.54
2022-09-13T16:20:53.150Z,18.72
2022-09-13T16:24:54.552Z,18.60
2022-09-13T16:28:55.936Z,18.46
2022-09-13T16:32:58.045Z,18.65
2022-09-13T16:36:59.483Z,18.29
2022-09-13T16:41:00.962Z,18.55
2022-09-13T16:45:02.435Z,18.32
2022-09-13T16:49:04.579Z,18.29
2022-09-13T16:53:06.166Z,18.13
2022-09-13T16:57:09.894Z,18.15
2022-09-13T17:01:14.026Z,18.07
2022-09-13T17:05:15.694Z,17.99
2022-09-13T17:09:18.010Z,18.08
2022-09-13T17:13:19.688Z,17.81
2022-09-13T17:17:21.317Z,17.81
2022-09-13T17:21:23.323Z,17.55
2022-09-13T17:25:25.661Z,17.58
2022-09-13T17:29:30.956Z,17.65
2022-09-13T17:33:35.246Z,17.49
2022-09-13T17:37:37.085Z,17.26
2022-09-13T17:41:38.729Z,17.27
2022-09-13T17:45:40.306Z,17.06
2022-09-13T17:49:41.961Z,17.20
2022-09-13T17:53:48.031Z,16.98
2022-09-13T17:57:49.927Z,16.93
2022-09-13T18:01:54.136Z,16.81
2022-09-13T18:05:57.338Z,16.68
2022-09-13T18:09:59.115Z,16.61
2022-09-13T18:14:00.586Z,16.55
2022-09-13T18:18:02.085Z,16.16
2022-09-13T18:22:03.625Z,16.24
2022-09-13T18:26:11.325Z,16.24
2022-09-13T18:30:13.010Z,16.38
2022-09-13T18:34:14.820Z,16.34
2022-09-13T18:38:19.304Z,16.12
2022-09-13T18:42:20.788Z,16.14
2022-09-13T18:46:24.864Z,15.93
2022-09-13T18:50:26.465Z,16.09
2022-09-13T18:54:27.972Z,15.82
2022-09-13T18:58:31.309Z,15.85
2022-09-13T19:02:32.942Z,15.76
2022-09-13T19:06:35.967Z,15.80
2022-09-13T19:10:38.215Z,15.81
2022-09-13T19:14:40.084Z,15.73
2022-09-13T19:18:42.401Z,15.73
2022-09-13T19:22:46.860Z,15.72
2022-09-13T19:26:50.941Z,15.37
2022-09-13T19:30:54.062Z,15.36
2022-09-13T19:34:55.503Z,15.46
2022-09-13T19:38:57.898Z,15.47
2022-09-13T19:42:59.791Z,15.54
2022-09-13T19:47:44.988Z,15.52
2022-09-13T19:51:32.407Z,15.37
2022-09-13T19:55:33.808Z,15.26
2022-09-13T19:59:35.222Z,15.22
2022-09-13T20:03:37.241Z,15.15
2022-09-13T20:07:38.700Z,15.19
2022-09-13T20:11:42.607Z,15.17
2022-09-13T20:15:45.221Z,14.96
2022-09-13T20:19:50.123Z,14.84
2022-09-13T20:23:59.389Z,14.95
2022-09-13T20:28:00.781Z,14.81
2022-09-13T20:32:02.594Z,14.75
2022-09-13T20:36:05.915Z,14.67
2022-09-13T20:40:08.327Z,14.58
2022-09-13T20:44:09.865Z,14.67
2022-09-13T20:48:12.134Z,14.42
2022-09-13T20:52:14.147Z,14.32
2022-09-13T20:56:17.949Z,14.54
2022-09-13T21:00:19.575Z,14.48
2022-09-13T21:04:22.049Z,14.20
2022-09-13T21:08:41.526Z,14.20
2022-09-13T21:12:44.169Z,14.14
2022-09-13T21:16:45.630Z,14.24
2022-09-13T21:20:57.594Z,14.01
2022-09-13T21:24:58.961Z,13.91
2022-09-13T21:29:00.668Z,13.94
2022-09-13T21:33:02.056Z,13.86
2022-09-13T21:37:03.492Z,13.86
2022-09-13T21:41:12.048Z,13.76
2022-09-13T21:45:13.522Z,13.89
2022-09-13T21:49:15.830Z,13.73
2022-09-13T21:53:17.652Z,13.74
2022-09-13T21:57:19.108Z,13.89
2022-09-13T22:01:22.866Z,13.83
2022-09-13T22:05:24.458Z,13.72
2022-09-13T22:09:27.191Z,13.65
2022-09-13T22:13:28.824Z,13.60
2022-09-13T22:17:30.685Z,13.63
2022-09-13T22:21:34.069Z,13.58
2022-09-13T22:25:36.915Z,13.32
2022-09-13T22:29:38.421Z,13.31
2022-09-13T22:33:39.842Z,13.30
2022-09-13T22:37:41.276Z,13.21
2022-09-13T22:41:43.306Z,12.98
2022-09-13T22:45:44.688Z,12.96
2022-09-13T22:49:46.083Z,12.95
2022-09-13T22:53:49.514Z,12.98
2022-09-13T22:57:53.004Z,12.92
2022-09-13T23:01:54.447Z,12.95
2022-09-13T23:05:55.890Z,12.78
2022-09-13T23:09:57.345Z,12.44
2022-09-13T23:14:01.632Z,12.30
2022-09-13T23:18:03.139Z,12.50
2022-09-13T23:22:04.782Z,12.59
2022-09-13T23:26:10.999Z,12.62
2022-09-13T23:30:12.697Z,12.37
2022-09-13T23:34:14.874Z,12.54
2022-09-13T23:38:16.347Z,12.57
2022-09-13T23:42:17.870Z,12.32
2022-09-13T23:46:20.100Z,12.32
2022-09-13T23:50:21.638Z,12.46
2022-09-13T23:54:23.132Z,12.24
2022-09-13T23:58:25.237Z,12.32
